Time;durP1;ratioP1;P1;durP2;ratioP2;P2;SDS_P1;SDS_P2;PMS_P1;PMS_P2;Temp;Humidity;BMP_temperature;BMP_pressure;BME280_temperature;BME280_humidity;BME280_pressure;Samples;Min_cycle;Max_cycle;Signal;HPM_P1;HPM_P2
2021/10/05 00:00:19;;;;;;;4.70;2.30;;;;;;;9.79;87.00;100704.41;681197;28;3712;-54
2021/10/05 00:00:40;;;;;;;4.22;2.22;;;;;;;9.83;86.93;100708.75;681341;28;1299;-53
2021/10/05 00:01:00;;;;;;;4.17;2.30;;;;;;;9.91;85.79;100706.13;684304;28;1066;-52
2021/10/05 00:01:21;;;;;;;3.80;2.23;;;;;;;9.93;87.16;100701.78;682324;28;944;-54
2021/10/05 00:01:44;;;;;;;4.50;2.45;;;;;;;9.93;85.76;100701.78;682225;28;970;-52
2021/10/05 00:02:04;;;;;;;4.63;2.40;;;;;;;9.91;87.04;100698.28;683197;28;1183;-53
2021/10/05 00:02:25;;;;;;;4.93;2.40;;;;;;;9.84;87.13;100697.47;680969;28;5299;-51
2021/10/05 00:02:45;;;;;;;4.13;2.30;;;;;;;9.83;86.79;100695.72;682125;28;1259;-50
2021/10/05 00:03:05;;;;;;;4.00;2.20;;;;;;;9.87;86.59;100705.28;682189;28;1077;-52
2021/10/05 00:03:26;;;;;;;4.63;2.30;;;;;;;9.90;86.22;100704.41;681759;28;3143;-52
2021/10/05 00:03:46;;;;;;;4.43;2.23;;;;;;;9.92;86.74;100704.41;681166;28;1923;-55
2021/10/05 00:04:06;;;;;;;4.07;2.10;;;;;;;9.88;86.85;100696.59;683320;28;1243;-51
2021/10/05 00:04:27;;;;;;;3.80;2.20;;;;;;;9.89;87.00;100697.44;681194;28;1153;-55
2021/10/05 00:04:47;;;;;;;3.70;2.33;;;;;;;9.91;86.55;100700.91;681172;28;1239;-54
2021/10/05 00:05:09;;;;;;;3.38;2.13;;;;;;;9.88;87.06;100693.97;681936;28;1116;-53
2021/10/05 00:05:29;;;;;;;4.43;2.20;;;;;;;9.86;86.45;100700.06;681777;28;5443;-55
2021/10/05 00:05:50;;;;;;;4.27;2.30;;;;;;;9.82;87.97;100700.94;682326;28;1364;-51
2021/10/05 00:06:10;;;;;;;4.23;2.40;;;;;;;9.80;87.21;100694.81;680982;28;1351;-53
2021/10/05 00:06:30;;;;;;;4.32;2.45;;;;;;;9.80;87.02;100700.03;681175;28;1264;-54
2021/10/05 00:06:51;;;;;;;4.13;2.30;;;;;;;9.82;86.74;100695.72;680681;28;4146;-53
2021/10/05 00:07:11;;;;;;;4.25;2.45;;;;;;;9.83;87.47;100694.81;681679;28;1159;-50
2021/10/05 00:07:31;;;;;;;4.47;2.40;;;;;;;9.80;87.20;100700.94;682819;28;1214;-53
2021/10/05 00:07:52;;;;;;;5.33;2.40;;;;;;;9.79;86.89;100693.97;681803;28;1559;-55
2021/10/05 00:08:14;;;;;;;4.80;2.10;;;;;;;9.81;87.10;100697.44;682132;28;1061;-51
2021/10/05 00:08:35;;;;;;;3.63;2.10;;;;;;;9.76;87.26;100698.31;681277;28;5544;-51
2021/10/05 00:08:55;;;;;;;3.97;2.23;;;;;;;9.72;87.21;100700.06;681148;28;1120;-50
2021/10/05 00:09:15;;;;;;;3.33;2.10;;;;;;;9.70;87.54;100700.03;682405;28;1374;-52
2021/10/05 00:09:37;;;;;;;4.10;2.28;;;;;;;9.68;87.56;100695.72;681226;28;1509;-50
2021/10/05 00:09:57;;;;;;;4.93;2.40;;;;;;;9.67;87.79;100699.19;682557;28;3410;-51
2021/10/05 00:10:18;;;;;;;5.80;2.50;;;;;;;9.71;86.78;100695.72;680539;28;3895;-52
2021/10/05 00:10:38;;;;;;;4.07;2.30;;;;;;;9.69;88.37;100702.66;682699;28;1132;-51
2021/10/05 00:10:59;;;;;;;4.60;2.20;;;;;;;9.72;87.76;100700.06;680638;28;1054;-54
2021/10/05 00:11:19;;;;;;;3.47;2.20;;;;;;;9.69;87.82;100695.72;681651;28;1338;-52
2021/10/05 00:11:40;;;;;;;4.20;2.25;;;;;;;9.67;87.56;100701.81;681420;28;4377;-53
2021/10/05 00:12:00;;;;;;;4.00;2.30;;;;;;;9.75;86.56;100700.06;681819;28;1198;-55
2021/10/05 00:12:21;;;;;;;4.57;2.20;;;;;;;9.75;87.32;100697.47;682479;28;1216;-56
2021/10/05 00:12:41;;;;;;;4.50;2.40;;;;;;;9.76;88.02;100700.91;682339;28;1165;-55
2021/10/05 00:13:02;;;;;;;4.07;2.40;;;;;;;9.77;87.00;100703.53;682266;28;1168;-50
2021/10/05 00:13:23;;;;;;;3.97;2.40;;;;;;;9.80;87.36;100700.94;683843;28;3573;-50
2021/10/05 00:13:43;;;;;;;4.63;2.30;;;;;;;9.81;86.47;100696.56;684834;28;1050;-53
2021/10/05 00:14:04;;;;;;;4.37;2.17;;;;;;;9.87;85.46;100700.06;684171;28;1053;-53
2021/10/05 00:14:24;;;;;;;3.97;2.30;;;;;;;9.86;86.26;100700.91;681503;28;4379;-54
2021/10/05 00:14:45;;;;;;;3.88;2.33;;;;;;;9.83;85.85;100707.88;681665;28;1128;-53
2021/10/05 00:15:07;;;;;;;4.10;2.30;;;;;;;9.84;86.99;100704.41;682148;28;1167;-52
2021/10/05 00:15:28;;;;;;;5.25;2.45;;;;;;;9.81;86.95;100702.66;679488;28;1054;-51
2021/10/05 00:15:49;;;;;;;4.23;2.40;;;;;;;9.79;86.94;100704.41;679580;28;1193;-52
2021/10/05 00:16:09;;;;;;;4.85;2.35;;;;;;;9.79;86.48;100704.41;678814;28;1304;-52
2021/10/05 00:16:30;;;;;;;4.45;2.40;;;;;;;9.84;85.86;100707.00;679090;28;2429;-50
2021/10/05 00:16:51;;;;;;;3.67;2.10;;;;;;;9.82;86.77;100703.53;679638;28;1354;-52
2021/10/05 00:17:11;;;;;;;3.87;2.20;;;;;;;9.81;86.35;100705.25;679469;28;1463;-50
2021/10/05 00:17:31;;;;;;;4.22;2.30;;;;;;;9.86;86.19;100703.53;678843;29;4581;-50
2021/10/05 00:17:52;;;;;;;4.43;2.40;;;;;;;9.83;86.26;100706.16;679208;28;1130;-55
2021/10/05 00:18:12;;;;;;;4.77;2.30;;;;;;;9.81;85.66;100705.25;679622;28;1339;-52
2021/10/05 00:18:33;;;;;;;3.83;2.10;;;;;;;9.80;86.54;100708.78;682018;28;1224;-52
2021/10/05 00:18:53;;;;;;;3.30;2.20;;;;;;;9.74;86.65;100703.53;682215;28;1509;-53
2021/10/05 00:19:15;;;;;;;3.70;2.25;;;;;;;9.70;87.09;100699.19;680841;28;1171;-55
2021/10/05 00:19:36;;;;;;;3.85;2.30;;;;;;;9.73;86.15;100698.31;679291;28;3228;-52
2021/10/05 00:19:56;;;;;;;4.10;2.45;;;;;;;9.70;87.57;100694.81;676891;28;2229;-53
2021/10/05 00:20:17;;;;;;;4.30;2.37;;;;;;;9.69;87.49;100694.84;679233;28;1105;-51
2021/10/05 00:20:37;;;;;;;4.13;2.20;;;;;;;9.71;86.88;100690.50;678346;28;5800;-51
2021/10/05 00:20:58;;;;;;;4.38;2.40;;;;;;;9.70;87.34;100701.81;679549;29;1212;-50
2021/10/05 00:21:20;;;;;;;4.07;2.50;;;;;;;9.73;86.66;100690.50;679168;29;1196;-55
2021/10/05 00:21:40;;;;;;;4.85;2.45;;;;;;;9.75;86.89;100691.34;680053;28;1266;-50
2021/10/05 00:22:01;;;;;;;3.78;2.10;;;;;;;9.77;86.57;100687.88;682590;28;1199;-50
2021/10/05 00:22:21;;;;;;;3.67;2.27;;;;;;;9.84;85.99;100687.00;679342;28;1121;-51
2021/10/05 00:22:43;;;;;;;4.15;2.40;;;;;;;9.87;85.85;100691.34;679370;28;999;-53
2021/10/05 00:23:03;;;;;;;4.35;2.33;;;;;;;9.93;86.27;100691.34;678817;29;3748;-51
2021/10/05 00:23:24;;;;;;;4.30;2.20;;;;;;;9.92;86.50;100689.59;678623;28;4373;-51
2021/10/05 00:23:44;;;;;;;4.07;2.20;;;;;;;9.91;85.26;100684.38;679211;28;1663;-55
2021/10/05 00:24:04;;;;;;;4.57;2.33;;;;;;;9.89;86.54;100694.81;679675;28;1148;-51
2021/10/05 00:24:25;;;;;;;4.40;2.33;;;;;;;9.81;86.68;100696.56;679519;28;1154;-52
2021/10/05 00:24:45;;;;;;;4.20;2.40;;;;;;;9.74;86.99;100690.47;678582;28;1272;-51
2021/10/05 00:25:06;;;;;;;3.97;2.40;;;;;;;9.69;87.95;100692.22;679379;29;1213;-52
2021/10/05 00:25:27;;;;;;;4.43;2.50;;;;;;;9.65;87.70;100686.16;678515;29;1148;-51
2021/10/05 00:25:47;;;;;;;4.40;2.50;;;;;;;9.67;86.82;100694.84;679597;28;1296;-53
2021/10/05 00:26:08;;;;;;;3.95;2.53;;;;;;;9.69;87.24;100687.88;679788;28;3459;-53
2021/10/05 00:26:29;;;;;;;4.40;2.60;;;;;;;9.67;87.59;100684.41;680065;28;4632;-51
2021/10/05 00:26:49;;;;;;;4.20;2.40;;;;;;;9.68;86.81;100686.16;681413;28;1236;-51
2021/10/05 00:27:10;;;;;;;3.90;2.43;;;;;;;9.67;87.29;100689.63;682278;28;1000;-53
2021/10/05 00:27:30;;;;;;;3.90;2.40;;;;;;;9.67;86.79;100679.16;681401;28;1236;-51
2021/10/05 00:27:51;;;;;;;3.60;2.20;;;;;;;9.74;86.58;100684.41;681307;28;1314;-53
2021/10/05 00:28:11;;;;;;;4.00;2.30;;;;;;;9.73;87.66;100685.28;682005;28;1081;-54
2021/10/05 00:28:31;;;;;;;3.80;2.50;;;;;;;9.73;86.45;100677.44;681446;28;1050;-52
2021/10/05 00:28:52;;;;;;;4.03;2.40;;;;;;;9.70;87.33;100683.53;681221;28;939;-51
2021/10/05 00:29:13;;;;;;;6.30;2.60;;;;;;;9.73;86.08;100682.66;681726;28;3050;-50
2021/10/05 00:29:33;;;;;;;5.30;2.40;;;;;;;9.77;85.49;100680.03;682861;28;4824;-53
2021/10/05 00:29:53;;;;;;;4.55;2.50;;;;;;;9.75;87.00;100680.91;683409;28;1977;-50
2021/10/05 00:30:14;;;;;;;4.57;2.33;;;;;;;9.70;87.13;100673.94;684640;28;1077;-53
2021/10/05 00:30:34;;;;;;;4.67;2.20;;;;;;;9.73;86.65;100677.44;684229;28;1108;-52
2021/10/05 00:30:55;;;;;;;4.60;2.20;;;;;;;9.73;85.72;100678.28;682327;28;1089;-52
2021/10/05 00:31:15;;;;;;;4.45;2.50;;;;;;;9.77;86.25;100682.66;681810;28;1065;-51
2021/10/05 00:31:35;;;;;;;4.20;2.40;;;;;;;9.79;86.12;100682.63;681800;28;943;-51
2021/10/05 00:31:56;;;;;;;4.07;2.30;;;;;;;9.78;86.59;100687.00;681571;28;1367;-52
2021/10/05 00:32:16;;;;;;;3.83;2.40;;;;;;;9.73;86.69;100680.91;682387;28;1188;-53
2021/10/05 00:32:37;;;;;;;3.90;2.50;;;;;;;9.70;87.13;100680.91;680771;28;4378;-55
2021/10/05 00:32:58;;;;;;;4.53;2.50;;;;;;;9.69;87.20;100681.78;681986;28;1445;-55
2021/10/05 00:33:18;;;;;;;4.83;2.37;;;;;;;9.73;85.98;100678.28;681024;28;2901;-54
2021/10/05 00:33:39;;;;;;;5.25;2.40;;;;;;;9.77;86.63;100669.59;681092;28;1439;-51
2021/10/05 00:33:59;;;;;;;4.60;2.30;;;;;;;9.80;85.30;100669.59;682097;28;1205;-52
2021/10/05 00:34:20;;;;;;;3.85;2.33;;;;;;;9.82;85.62;100672.22;681719;28;1077;-52
2021/10/05 00:34:40;;;;;;;4.27;2.33;;;;;;;9.87;84.60;100670.44;681994;28;1093;-55
2021/10/05 00:35:03;;;;;;;4.63;2.30;;;;;;;9.92;84.45;100667.84;682108;28;1157;-53
2021/10/05 00:35:23;;;;;;;4.43;2.30;;;;;;;9.88;86.33;100665.25;681777;28;4609;-52
2021/10/05 00:35:44;;;;;;;4.53;2.33;;;;;;;9.86;85.88;100666.97;681970;28;3174;-56
2021/10/05 00:36:05;;;;;;;6.43;2.50;;;;;;;9.85;86.13;100665.22;681559;28;3383;-53
2021/10/05 00:36:25;;;;;;;5.13;2.50;;;;;;;9.83;86.23;100658.25;684043;28;1546;-52
2021/10/05 00:36:46;;;;;;;4.50;2.40;;;;;;;9.85;84.74;100661.75;681953;28;1342;-52
2021/10/05 00:37:06;;;;;;;3.53;2.30;;;;;;;9.91;84.34;100660.88;682319;28;1322;-53
2021/10/05 00:37:26;;;;;;;4.03;2.40;;;;;;;9.93;85.61;100661.72;681651;28;1315;-54
2021/10/05 00:37:47;;;;;;;4.43;2.50;;;;;;;9.92;86.08;100663.47;682397;28;1101;-52
2021/10/05 00:38:07;;;;;;;4.30;2.42;;;;;;;9.94;84.36;100666.09;679073;28;1201;-51
2021/10/05 00:38:28;;;;;;;4.18;2.33;;;;;;;9.94;86.10;100660.84;679249;28;4451;-52
2021/10/05 00:38:48;;;;;;;4.23;2.40;;;;;;;9.91;86.44;100661.72;681587;28;957;-50
2021/10/05 00:39:09;;;;;;;3.72;2.42;;;;;;;9.89;85.33;100659.13;680779;28;2986;-52
2021/10/05 00:39:29;;;;;;;3.70;2.30;;;;;;;9.85;86.56;100662.63;681562;28;3794;-51
2021/10/05 00:39:50;;;;;;;5.78;2.60;;;;;;;9.82;86.92;100652.19;679218;28;1162;-51
2021/10/05 00:40:11;;;;;;;4.47;2.50;;;;;;;9.83;86.07;100666.97;681696;28;1244;-52
2021/10/05 00:40:31;;;;;;;3.65;2.15;;;;;;;9.86;85.31;100661.75;682012;28;1477;-54
2021/10/05 00:40:52;;;;;;;3.65;2.20;;;;;;;9.86;86.23;100656.53;681679;28;3934;-52
2021/10/05 00:41:12;;;;;;;4.27;2.40;;;;;;;9.89;85.28;100659.13;681409;28;1075;-55
2021/10/05 00:41:33;;;;;;;4.25;2.30;;;;;;;9.93;86.13;100654.78;681237;28;4442;-53
2021/10/05 00:41:54;;;;;;;4.15;2.40;;;;;;;9.89;87.04;100659.13;680470;28;1136;-54
2021/10/05 00:42:15;;;;;;;3.80;2.40;;;;;;;9.87;86.88;100660.88;680953;28;2192;-54
2021/10/05 00:42:35;;;;;;;3.65;2.50;;;;;;;9.84;87.50;100660.91;681851;28;3807;-51
2021/10/05 00:42:56;;;;;;;4.13;2.40;;;;;;;9.81;87.39;100671.31;681845;28;1433;-51
2021/10/05 00:43:16;;;;;;;3.95;2.30;;;;;;;9.79;86.64;100657.41;681545;28;1241;-54
2021/10/05 00:43:37;;;;;;;4.37;2.50;;;;;;;9.79;87.23;100665.25;679291;28;1378;-54
2021/10/05 00:44:00;;;;;;;4.13;2.40;;;;;;;9.80;88.02;100661.78;682486;28;1327;-55
2021/10/05 00:44:29;;;;;;;5.03;2.42;;;;;;;9.95;86.95;100657.38;680515;28;4804;-53
2021/10/05 00:44:50;;;;;;;4.45;2.33;;;;;;;9.99;85.65;100664.34;681582;28;1154;-54
2021/10/05 00:45:11;;;;;;;4.05;2.50;;;;;;;9.98;86.59;100658.25;679509;28;1025;-51
2021/10/05 00:45:31;;;;;;;3.58;2.38;;;;;;;9.91;87.50;100660.88;681133;28;3198;-51
2021/10/05 00:45:52;;;;;;;4.17;2.40;;;;;;;9.85;87.47;100660.00;678495;28;4037;-55
2021/10/05 00:46:12;;;;;;;5.20;2.40;;;;;;;9.75;87.49;100666.13;679071;28;1201;-52
2021/10/05 00:46:35;;;;;;;3.70;2.30;;;;;;;9.70;87.39;100662.66;679500;28;1256;-52
2021/10/05 00:47:00;;;;;;;3.58;2.40;;;;;;;9.67;87.38;100667.88;680077;28;1332;-51
2021/10/05 00:47:21;;;;;;;3.80;2.20;;;;;;;9.70;86.43;100666.09;680912;28;4381;-52
2021/10/05 00:47:41;;;;;;;3.65;2.35;;;;;;;9.75;87.80;100660.00;682009;28;1224;-53
2021/10/05 00:48:03;;;;;;;5.23;2.50;;;;;;;9.74;87.35;100664.38;682409;28;1098;-52
2021/10/05 00:48:23;;;;;;;3.78;2.28;;;;;;;9.73;87.27;100660.03;681107;28;1242;-54
2021/10/05 00:48:43;;;;;;;3.90;2.25;;;;;;;9.68;87.50;100659.19;681626;28;3509;-51
2021/10/05 00:49:04;;;;;;;4.07;2.37;;;;;;;9.64;86.94;100658.31;681481;28;2299;-51
2021/10/05 00:49:26;;;;;;;3.90;2.20;;;;;;;9.62;87.86;100661.78;680960;28;1129;-52
2021/10/05 00:49:48;;;;;;;3.60;2.25;;;;;;;9.60;87.76;100655.72;682274;28;1923;-53
2021/10/05 00:50:09;;;;;;;4.55;2.40;;;;;;;9.62;87.92;100660.06;683806;28;1442;-53
2021/10/05 00:50:30;;;;;;;4.53;2.50;;;;;;;9.63;87.50;100655.69;681126;28;4922;-53
2021/10/05 00:50:51;;;;;;;3.20;2.25;;;;;;;9.65;87.13;100653.94;681942;28;1038;-52
2021/10/05 00:51:12;;;;;;;3.65;2.38;;;;;;;9.65;88.28;100652.22;682018;28;1286;-51
2021/10/05 00:51:33;;;;;;;3.77;2.40;;;;;;;9.62;88.59;100648.72;681811;28;1212;-52
2021/10/05 00:51:53;;;;;;;4.88;2.50;;;;;;;9.61;88.59;100650.47;681298;28;3432;-52
2021/10/05 00:52:16;;;;;;;4.63;2.63;;;;;;;9.64;88.40;100653.09;680715;28;3938;-52
2021/10/05 00:52:36;;;;;;;4.20;2.10;;;;;;;9.63;87.77;100645.25;682048;28;1443;-52
2021/10/05 00:52:57;;;;;;;3.67;2.35;;;;;;;9.62;88.21;100652.22;681823;28;1070;-51
2021/10/05 00:53:17;;;;;;;4.10;2.47;;;;;;;9.58;88.36;100642.66;679024;29;1327;-53
2021/10/05 00:53:39;;;;;;;4.05;2.50;;;;;;;9.56;88.48;100644.38;678472;28;4379;-52
2021/10/05 00:53:59;;;;;;;4.35;2.55;;;;;;;9.54;88.57;100644.41;679785;29;1513;-53
2021/10/05 00:54:20;;;;;;;4.03;2.40;;;;;;;9.57;87.58;100640.91;679773;29;1105;-53
2021/10/05 00:54:41;;;;;;;3.70;2.40;;;;;;;9.58;87.86;100647.88;679546;28;1894;-50
2021/10/05 00:55:03;;;;;;;4.30;2.47;;;;;;;9.63;87.78;100647.88;681848;28;1113;-53
2021/10/05 00:55:24;;;;;;;4.60;2.40;;;;;;;9.67;87.02;100636.56;683796;28;3338;-50
2021/10/05 00:55:45;;;;;;;4.85;2.40;;;;;;;9.69;87.43;100645.22;684561;28;1106;-58
2021/10/05 00:56:06;;;;;;;4.30;2.47;;;;;;;9.70;87.00;100641.75;683257;28;1325;-52
2021/10/05 00:56:27;;;;;;;5.35;2.40;;;;;;;9.72;87.29;100642.66;680968;28;4417;-55
2021/10/05 00:56:47;;;;;;;4.80;2.60;;;;;;;9.73;88.15;100638.28;681694;28;1240;-55
2021/10/05 00:57:09;;;;;;;4.40;2.37;;;;;;;9.73;88.01;100646.09;682371;28;1212;-52
2021/10/05 00:57:29;;;;;;;3.80;2.50;;;;;;;9.75;87.58;100641.75;682599;28;1922;-54
2021/10/05 00:57:51;;;;;;;4.25;2.50;;;;;;;9.77;87.58;100640.88;681770;28;1279;-52
2021/10/05 00:58:11;;;;;;;5.45;2.50;;;;;;;9.77;87.53;100643.47;681658;28;1446;-54
2021/10/05 00:58:32;;;;;;;4.50;2.42;;;;;;;9.80;86.85;100648.72;678783;29;3061;-52
2021/10/05 00:58:52;;;;;;;4.13;2.27;;;;;;;9.80;86.86;100643.50;678626;28;3469;-53
2021/10/05 00:59:13;;;;;;;3.90;2.20;;;;;;;9.81;86.39;100647.81;679380;29;1360;-50
2021/10/05 00:59:34;;;;;;;3.70;2.20;;;;;;;9.79;87.92;100652.19;678948;28;4367;-55
2021/10/05 00:59:54;;;;;;;4.32;2.33;;;;;;;9.85;87.55;100651.31;682477;28;1066;-50
2021/10/05 01:00:15;;;;;;;4.70;2.47;;;;;;;9.98;86.36;100645.19;681442;28;1208;-52
2021/10/05 01:00:37;;;;;;;4.70;2.30;;;;;;;9.99;85.70;100643.44;684908;28;1355;-55
2021/10/05 01:00:57;;;;;;;3.80;2.30;;;;;;;9.99;86.26;100648.66;683285;28;1101;-54
2021/10/05 01:01:18;;;;;;;3.50;2.30;;;;;;;9.96;87.04;100648.69;681962;28;1140;-53
2021/10/05 01:01:38;;;;;;;4.72;2.30;;;;;;;10.03;86.68;100645.19;682005;28;3891;-52
2021/10/05 01:02:00;;;;;;;4.37;2.50;;;;;;;10.09;85.40;100646.91;682028;28;3780;-53
2021/10/05 01:02:21;;;;;;;4.35;2.58;;;;;;;10.08;85.76;100650.38;681328;28;4595;-51
2021/10/05 01:02:45;;;;;;;5.20;2.60;;;;;;;10.05;86.16;100648.63;681684;28;1234;-51
2021/10/05 01:03:06;;;;;;;4.82;2.53;;;;;;;10.01;85.91;100644.28;681886;28;1275;-52
2021/10/05 01:03:26;;;;;;;3.47;2.23;;;;;;;9.99;85.43;100646.91;682206;28;1058;-51
2021/10/05 01:03:47;;;;;;;3.33;2.20;;;;;;;9.97;85.70;100643.44;682159;28;1199;-51
2021/10/05 01:04:07;;;;;;;3.80;2.10;;;;;;;9.94;87.05;100645.19;681926;28;1338;-51
2021/10/05 01:04:29;;;;;;;5.18;2.30;;;;;;;9.89;87.48;100651.28;681101;28;1243;-50
2021/10/05 01:04:49;;;;;;;4.28;2.33;;;;;;;9.85;87.74;100651.31;681639;28;1802;-58
2021/10/05 01:05:09;;;;;;;3.95;2.30;;;;;;;9.80;87.69;100650.44;681575;28;3501;-51
2021/10/05 01:05:30;;;;;;;4.27;2.37;;;;;;;9.77;87.40;100640.88;683112;28;4755;-50
2021/10/05 01:05:51;;;;;;;3.58;2.30;;;;;;;9.76;87.94;100652.22;682753;28;1132;-54
2021/10/05 01:06:11;;;;;;;3.40;2.20;;;;;;;9.77;86.99;100645.22;681525;28;1156;-50
2021/10/05 01:06:33;;;;;;;4.03;2.33;;;;;;;9.78;87.58;100640.00;682503;28;1272;-53
2021/10/05 01:06:56;;;;;;;4.55;2.60;;;;;;;9.79;87.27;100646.97;681946;28;1182;-52
2021/10/05 01:07:19;;;;;;;4.10;2.40;;;;;;;9.79;87.68;100636.53;680824;28;1265;-54
2021/10/05 01:07:39;;;;;;;4.13;2.30;;;;;;;9.80;87.67;100643.50;681615;28;1120;-50
2021/10/05 01:08:00;;;;;;;4.17;2.37;;;;;;;9.79;87.23;100636.53;682674;28;1129;-54
2021/10/05 01:08:21;;;;;;;4.00;2.40;;;;;;;9.79;87.67;100639.16;678433;28;4387;-51
2021/10/05 01:08:41;;;;;;;4.78;2.50;;;;;;;9.79;86.99;100630.41;679641;28;1581;-51
2021/10/05 01:09:02;;;;;;;4.75;2.35;;;;;;;9.80;86.93;100640.88;682879;28;1062;-52
2021/10/05 01:09:23;;;;;;;4.70;2.43;;;;;;;9.83;86.75;100630.44;681234;28;1270;-50
2021/10/05 01:09:46;;;;;;;4.32;2.40;;;;;;;9.85;86.87;100631.28;681047;28;1100;-54
2021/10/05 01:10:07;;;;;;;5.65;2.40;;;;;;;9.88;86.07;100633.91;681573;28;1236;-52
2021/10/05 01:10:28;;;;;;;4.20;2.38;;;;;;;9.94;86.36;100627.81;682671;28;1343;-53
2021/10/05 01:10:49;;;;;;;3.75;2.30;;;;;;;9.97;86.12;100632.13;681205;28;1124;-52
2021/10/05 01:11:09;;;;;;;4.47;2.40;;;;;;;9.95;86.69;100632.13;681507;28;1294;-50
2021/10/05 01:11:29;;;;;;;3.90;2.40;;;;;;;10.00;86.22;100629.53;680763;28;4413;-52
2021/10/05 01:11:50;;;;;;;3.67;2.43;;;;;;;10.06;85.41;100632.09;681165;28;1111;-53
2021/10/05 01:12:11;;;;;;;4.30;2.50;;;;;;;10.05;86.20;100627.75;681744;28;1459;-51
2021/10/05 01:12:32;;;;;;;3.83;2.40;;;;;;;10.00;86.90;100624.31;682263;28;1112;-53
2021/10/05 01:12:53;;;;;;;4.10;2.45;;;;;;;9.98;86.28;100626.03;681146;28;1428;-53
2021/10/05 01:13:13;;;;;;;3.72;2.40;;;;;;;10.03;85.49;100629.50;682099;28;1264;-50
2021/10/05 01:13:34;;;;;;;3.80;2.40;;;;;;;10.11;86.16;100630.34;682504;28;1327;-50
2021/10/05 01:13:54;;;;;;;4.15;2.30;;;;;;;10.28;84.98;100624.19;684154;28;1173;-51
2021/10/05 01:14:17;;;;;;;4.80;2.50;;;;;;;10.29;84.74;100615.50;678772;29;1375;-50
2021/10/05 01:14:38;;;;;;;4.15;2.38;;;;;;;10.28;85.70;100624.19;679139;28;4485;-54
2021/10/05 01:14:58;;;;;;;4.00;2.30;;;;;;;10.21;85.51;100620.72;682139;28;1266;-53
2021/10/05 01:15:22;;;;;;;3.53;2.30;;;;;;;10.18;85.13;100619.00;679465;28;1443;-53
2021/10/05 01:15:43;;;;;;;4.00;2.30;;;;;;;10.15;85.35;100621.63;679887;28;1582;-51
2021/10/05 01:16:04;;;;;;;3.90;2.30;;;;;;;10.13;84.84;100623.38;681719;28;1144;-51
2021/10/05 01:16:24;;;;;;;3.50;2.10;;;;;;;10.12;85.23;100619.03;681595;28;1183;-52
2021/10/05 01:16:45;;;;;;;3.83;2.22;;;;;;;10.09;84.94;100623.41;681371;28;1155;-51
2021/10/05 01:17:07;;;;;;;3.70;2.17;;;;;;;10.09;86.20;100626.00;680737;28;1172;-51
2021/10/05 01:17:28;;;;;;;3.47;2.13;;;;;;;10.07;84.76;100612.94;680961;28;4367;-51
2021/10/05 01:17:49;;;;;;;3.77;2.30;;;;;;;10.09;84.68;100626.00;684554;28;1709;-52
2021/10/05 01:18:09;;;;;;;4.25;2.30;;;;;;;10.08;85.74;100617.31;681277;28;3826;-55
2021/10/05 01:18:30;;;;;;;4.68;2.58;;;;;;;10.06;86.90;100624.28;681777;28;1721;-52
2021/10/05 01:18:50;;;;;;;3.80;2.40;;;;;;;10.19;85.80;100620.75;679043;28;1200;-51
2021/10/05 01:19:10;;;;;;;3.80;2.30;;;;;;;10.35;84.42;100620.72;679487;28;1216;-51
2021/10/05 01:19:31;;;;;;;4.00;2.20;;;;;;;10.46;83.29;100618.06;678944;28;1383;-52
2021/10/05 01:19:51;;;;;;;4.05;2.35;;;;;;;10.44;83.85;100615.44;679459;28;1157;-51
2021/10/05 01:20:13;;;;;;;4.27;2.40;;;;;;;10.41;83.78;100617.19;679573;28;1323;-54
2021/10/05 01:21:00;;;;;;;4.10;2.30;;;;;;;10.57;83.27;100617.09;680760;28;4419;-52
2021/10/05 01:21:20;;;;;;;4.50;2.30;;;;;;;10.53;82.84;100615.38;681612;28;3571;-52
2021/10/05 01:21:41;;;;;;;3.97;2.30;;;;;;;10.49;83.38;100618.88;681865;28;1191;-52
2021/10/05 01:22:02;;;;;;;3.87;2.20;;;;;;;10.44;83.02;100619.78;680008;28;1400;-51
2021/10/05 01:22:23;;;;;;;6.28;2.30;;;;;;;10.40;83.61;100618.94;681323;28;1121;-53
2021/10/05 01:22:43;;;;;;;4.57;2.10;;;;;;;10.38;82.79;100610.22;682205;28;1101;-51
2021/10/05 01:23:03;;;;;;;3.53;2.20;;;;;;;10.31;85.17;100611.13;681592;28;1073;-52
2021/10/05 01:23:25;;;;;;;3.78;2.20;;;;;;;10.39;83.78;100606.75;681239;28;4846;-52
2021/10/05 01:23:46;;;;;;;3.42;2.10;;;;;;;10.35;84.26;100608.50;681362;28;1299;-52
2021/10/05 01:24:13;;;;;;;3.60;2.30;;;;;;;10.36;84.44;100610.25;682292;28;1117;-52
2021/10/05 01:24:34;;;;;;;4.38;2.20;;;;;;;10.38;83.79;100605.91;681828;28;2084;-53
2021/10/05 01:24:54;;;;;;;3.45;2.20;;;;;;;10.39;84.31;100605.00;682083;28;1119;-51
2021/10/05 01:25:15;;;;;;;3.53;2.20;;;;;;;10.31;84.71;100598.91;681856;28;1470;-53
2021/10/05 01:25:36;;;;;;;3.30;2.20;;;;;;;10.35;84.64;100600.66;681588;28;1247;-51
2021/10/05 01:25:56;;;;;;;4.97;2.40;;;;;;;10.35;84.49;100599.81;678367;29;1536;-52
2021/10/05 01:26:17;;;;;;;5.60;2.50;;;;;;;10.48;83.98;100606.72;680201;29;1525;-53
2021/10/05 01:26:38;;;;;;;5.93;2.28;;;;;;;10.45;83.97;100596.25;678368;28;4312;-52
2021/10/05 01:26:59;;;;;;;4.32;2.28;;;;;;;10.38;84.51;100603.28;678960;28;1154;-53
2021/10/05 01:27:19;;;;;;;5.40;2.28;;;;;;;10.35;83.76;100598.03;680092;28;1114;-54
2021/10/05 01:27:49;;;;;;;3.97;2.20;;;;;;;10.35;84.26;100595.44;679543;28;3424;-51
2021/10/05 01:28:10;;;;;;;4.15;2.20;;;;;;;10.33;83.71;100596.31;682697;28;1254;-52
2021/10/05 01:28:31;;;;;;;3.80;2.10;;;;;;;10.29;84.07;100597.19;682468;28;1295;-53
2021/10/05 01:28:52;;;;;;;4.07;2.05;;;;;;;10.27;84.52;100585.88;681432;28;1053;-53
2021/10/05 01:29:18;;;;;;;4.67;2.17;;;;;;;10.29;84.26;100589.38;682575;28;1267;-53
2021/10/05 01:29:38;;;;;;;3.15;1.90;;;;;;;10.25;85.33;100598.09;680444;28;4446;-51
2021/10/05 01:29:58;;;;;;;3.80;2.15;;;;;;;10.26;84.72;100589.34;681891;28;1930;-51
2021/10/05 01:30:21;;;;;;;4.57;2.30;;;;;;;10.36;84.57;100591.09;680809;28;1140;-53
2021/10/05 01:30:42;;;;;;;4.75;2.40;;;;;;;10.41;84.45;100591.91;681146;28;3226;-53
2021/10/05 01:31:02;;;;;;;3.70;2.10;;;;;;;10.46;83.84;100584.06;682008;28;3802;-53
2021/10/05 01:31:22;;;;;;;3.78;2.20;;;;;;;10.51;83.84;100590.16;683031;28;1391;-53
2021/10/05 01:31:47;;;;;;;5.00;2.40;;;;;;;10.55;83.86;100581.41;680968;28;1321;-53
2021/10/05 01:32:07;;;;;;;5.07;2.30;;;;;;;10.49;84.03;100584.91;681837;28;1006;-50
2021/10/05 01:32:28;;;;;;;4.93;2.20;;;;;;;10.48;83.74;100588.41;680781;28;4340;-51
2021/10/05 01:32:49;;;;;;;3.60;2.20;;;;;;;10.44;84.38;100584.09;681945;28;1204;-54
2021/10/05 01:33:09;;;;;;;4.28;2.20;;;;;;;10.37;84.23;100582.34;681193;28;1312;-54
2021/10/05 01:33:29;;;;;;;4.23;2.23;;;;;;;10.31;84.83;100583.22;682211;28;1394;-51
2021/10/05 01:33:50;;;;;;;4.50;2.40;;;;;;;10.28;84.29;100579.78;678476;28;3582;-55
2021/10/05 01:34:11;;;;;;;3.90;2.30;;;;;;;10.27;84.10;100580.66;678140;28;1321;-51
2021/10/05 01:34:33;;;;;;;3.63;2.10;;;;;;;10.24;84.34;100576.31;681830;28;1299;-52
2021/10/05 01:34:53;;;;;;;4.75;2.20;;;;;;;10.20;85.38;100579.81;681175;28;1501;-55
2021/10/05 01:35:14;;;;;;;5.77;2.30;;;;;;;10.19;85.07;100580.66;681596;28;955;-52
2021/10/05 01:35:35;;;;;;;5.22;2.35;;;;;;;10.22;85.09;100584.16;681420;28;4347;-51
2021/10/05 01:35:56;;;;;;;3.70;2.40;;;;;;;10.27;84.38;100576.28;683585;28;1438;-52
2021/10/05 01:36:16;;;;;;;3.58;2.13;;;;;;;10.33;84.62;100578.03;681649;28;1474;-50
2021/10/05 01:36:37;;;;;;;4.83;2.40;;;;;;;10.35;83.92;100579.75;681913;28;1400;-52
2021/10/05 01:36:59;;;;;;;4.65;2.47;;;;;;;10.33;83.82;100575.41;681094;28;3253;-54
2021/10/05 01:37:19;;;;;;;3.55;2.15;;;;;;;10.38;84.23;100581.50;680999;28;3844;-50
2021/10/05 01:37:40;;;;;;;4.20;2.30;;;;;;;10.42;83.81;100580.59;681955;28;1259;-50
2021/10/05 01:38:00;;;;;;;4.07;2.30;;;;;;;10.43;83.92;100581.50;681860;28;1381;-50
2021/10/05 01:38:21;;;;;;;4.38;2.20;;;;;;;10.47;83.53;100573.59;679999;28;4710;-54
2021/10/05 01:38:41;;;;;;;4.00;2.10;;;;;;;10.43;83.23;100571.88;681710;28;1136;-55
2021/10/05 01:39:04;;;;;;;4.03;2.30;;;;;;;10.46;83.76;100571.88;681818;28;1080;-52
2021/10/05 01:39:34;;;;;;;3.53;2.10;;;;;;;10.43;82.77;100571.88;682035;28;1202;-52
2021/10/05 01:39:54;;;;;;;3.85;2.10;;;;;;;10.46;83.45;100574.47;681486;28;1169;-50
2021/10/05 01:40:14;;;;;;;3.87;2.20;;;;;;;10.44;84.06;100577.97;681470;28;3842;-51
2021/10/05 01:40:35;;;;;;;3.60;2.05;;;;;;;10.42;83.00;100572.75;680489;28;4360;-50
2021/10/05 01:40:55;;;;;;;3.47;2.10;;;;;;;10.39;84.33;100575.41;678703;28;1255;-51
2021/10/05 01:41:16;;;;;;;4.28;2.45;;;;;;;10.38;83.97;100566.69;678787;29;1422;-52